sensor_id;sensor_type;location;lat;lon;timestamp;temperature;humidity
41628;DHT22;27321;50.816;6.054;2023-07-30T00:03:00;18.80;76.50
41628;DHT22;27321;50.816;6.054;2023-07-30T00:06:01;18.80;76.40
41628;DHT22;27321;50.816;6.054;2023-07-30T00:09:02;18.70;76.00
41628;DHT22;27321;50.816;6.054;2023-07-30T00:12:05;18.70;76.10
41628;DHT22;27321;50.816;6.054;2023-07-30T00:15:07;18.70;76.00
41628;DHT22;27321;50.816;6.054;2023-07-30T00:18:09;18.70;76.30
41628;DHT22;27321;50.816;6.054;2023-07-30T00:21:10;18.70;76.30
41628;DHT22;27321;50.816;6.054;2023-07-30T00:24:11;18.70;76.70
41628;DHT22;27321;50.816;6.054;2023-07-30T00:27:16;18.70;76.70
41628;DHT22;27321;50.816;6.054;2023-07-30T00:30:17;18.60;77.00
41628;DHT22;27321;50.816;6.054;2023-07-30T00:33:18;18.60;77.00
41628;DHT22;27321;50.816;6.054;2023-07-30T00:36:19;18.70;77.10
41628;DHT22;27321;50.816;6.054;2023-07-30T00:39:20;18.60;77.00
41628;DHT22;27321;50.816;6.054;2023-07-30T00:42:22;18.60;76.90
41628;DHT22;27321;50.816;6.054;2023-07-30T00:45:23;18.60;76.80
41628;DHT22;27321;50.816;6.054;2023-07-30T00:48:24;18.70;76.60
41628;DHT22;27321;50.816;6.054;2023-07-30T00:51:26;18.70;76.10
41628;DHT22;27321;50.816;6.054;2023-07-30T00:54:28;18.70;76.00
41628;DHT22;27321;50.816;6.054;2023-07-30T00:57:30;18.70;75.50
41628;DHT22;27321;50.816;6.054;2023-07-30T01:00:32;18.70;75.50
41628;DHT22;27321;50.816;6.054;2023-07-30T01:03:34;18.70;75.40
41628;DHT22;27321;50.816;6.054;2023-07-30T01:06:35;18.80;74.50
41628;DHT22;27321;50.816;6.054;2023-07-30T01:09:36;18.70;75.00
41628;DHT22;27321;50.816;6.054;2023-07-30T01:12:38;18.70;74.90
41628;DHT22;27321;50.816;6.054;2023-07-30T01:15:40;18.80;74.70
41628;DHT22;27321;50.816;6.054;2023-07-30T01:18:42;18.70;74.40
41628;DHT22;27321;50.816;6.054;2023-07-30T01:21:43;18.80;74.50
41628;DHT22;27321;50.816;6.054;2023-07-30T01:24:45;18.80;74.30
41628;DHT22;27321;50.816;6.054;2023-07-30T01:27:52;18.80;74.20
41628;DHT22;27321;50.816;6.054;2023-07-30T01:30:55;18.80;73.80
41628;DHT22;27321;50.816;6.054;2023-07-30T01:33:59;18.70;73.70
41628;DHT22;27321;50.816;6.054;2023-07-30T01:37:05;18.70;74.00
41628;DHT22;27321;50.816;6.054;2023-07-30T01:40:13;18.80;73.90
41628;DHT22;27321;50.816;6.054;2023-07-30T01:43:14;18.80;73.80
41628;DHT22;27321;50.816;6.054;2023-07-30T01:46:15;18.70;73.20
41628;DHT22;27321;50.816;6.054;2023-07-30T01:49:16;18.60;72.70
41628;DHT22;27321;50.816;6.054;2023-07-30T01:52:18;18.60;72.80
41628;DHT22;27321;50.816;6.054;2023-07-30T01:55:19;18.60;72.80
41628;DHT22;27321;50.816;6.054;2023-07-30T01:58:20;18.60;72.40
41628;DHT22;27321;50.816;6.054;2023-07-30T02:01:21;18.60;72.70
41628;DHT22;27321;50.816;6.054;2023-07-30T02:04:22;18.60;72.40
41628;DHT22;27321;50.816;6.054;2023-07-30T02:07:23;18.60;72.50
41628;DHT22;27321;50.816;6.054;2023-07-30T02:10:25;18.60;72.70
41628;DHT22;27321;50.816;6.054;2023-07-30T02:13:27;18.60;72.50
41628;DHT22;27321;50.816;6.054;2023-07-30T02:16:28;18.60;72.70
41628;DHT22;27321;50.816;6.054;2023-07-30T02:19:29;18.60;72.80
41628;DHT22;27321;50.816;6.054;2023-07-30T02:22:31;18.60;72.80
41628;DHT22;27321;50.816;6.054;2023-07-30T02:25:32;18.70;72.90
41628;DHT22;27321;50.816;6.054;2023-07-30T02:28:39;18.60;72.50
41628;DHT22;27321;50.816;6.054;2023-07-30T02:31:40;18.60;72.50
41628;DHT22;27321;50.816;6.054;2023-07-30T02:34:41;18.60;72.60
41628;DHT22;27321;50.816;6.054;2023-07-30T02:37:42;18.50;72.90
41628;DHT22;27321;50.816;6.054;2023-07-30T02:40:43;18.50;72.70
41628;DHT22;27321;50.816;6.054;2023-07-30T02:43:44;18.40;72.80
41628;DHT22;27321;50.816;6.054;2023-07-30T02:46:46;18.40;72.40
41628;DHT22;27321;50.816;6.054;2023-07-30T02:49:50;18.40;72.40
41628;DHT22;27321;50.816;6.054;2023-07-30T02:52:51;18.30;72.10
41628;DHT22;27321;50.816;6.054;2023-07-30T02:55:56;18.30;72.60
41628;DHT22;27321;50.816;6.054;2023-07-30T02:58:58;18.30;71.70
41628;DHT22;27321;50.816;6.054;2023-07-30T03:02:00;18.20;71.90
41628;DHT22;27321;50.816;6.054;2023-07-30T03:05:01;18.20;72.00
41628;DHT22;27321;50.816;6.054;2023-07-30T03:08:02;18.20;71.80
41628;DHT22;27321;50.816;6.054;2023-07-30T03:11:03;18.10;71.40
41628;DHT22;27321;50.816;6.054;2023-07-30T03:14:04;18.10;71.10
41628;DHT22;27321;50.816;6.054;2023-07-30T03:17:05;18.10;70.40
41628;DHT22;27321;50.816;6.054;2023-07-30T03:20:07;18.00;71.20
41628;DHT22;27321;50.816;6.054;2023-07-30T03:23:09;18.10;71.10
41628;DHT22;27321;50.816;6.054;2023-07-30T03:26:11;18.00;71.00
41628;DHT22;27321;50.816;6.054;2023-07-30T03:29:12;18.10;70.80
41628;DHT22;27321;50.816;6.054;2023-07-30T03:32:13;18.10;71.20
41628;DHT22;27321;50.816;6.054;2023-07-30T03:35:14;18.10;71.30
41628;DHT22;27321;50.816;6.054;2023-07-30T03:38:15;18.00;71.70
41628;DHT22;27321;50.816;6.054;2023-07-30T03:41:15;18.10;71.60
41628;DHT22;27321;50.816;6.054;2023-07-30T03:44:16;18.10;71.80
41628;DHT22;27321;50.816;6.054;2023-07-30T03:47:17;18.10;71.80
41628;DHT22;27321;50.816;6.054;2023-07-30T03:50:18;18.10;71.70
41628;DHT22;27321;50.816;6.054;2023-07-30T03:53:20;18.00;72.00
41628;DHT22;27321;50.816;6.054;2023-07-30T03:56:21;18.00;71.70
41628;DHT22;27321;50.816;6.054;2023-07-30T03:59:22;18.00;71.90
41628;DHT22;27321;50.816;6.054;2023-07-30T04:02:23;18.00;72.30
41628;DHT22;27321;50.816;6.054;2023-07-30T04:05:24;18.00;72.30
41628;DHT22;27321;50.816;6.054;2023-07-30T04:08:25;18.00;71.90
41628;DHT22;27321;50.816;6.054;2023-07-30T04:11:26;18.00;72.00
41628;DHT22;27321;50.816;6.054;2023-07-30T04:14:27;18.00;71.80
41628;DHT22;27321;50.816;6.054;2023-07-30T04:17:28;17.90;71.70
41628;DHT22;27321;50.816;6.054;2023-07-30T04:20:29;17.90;71.80
41628;DHT22;27321;50.816;6.054;2023-07-30T04:23:30;17.70;73.40
41628;DHT22;27321;50.816;6.054;2023-07-30T04:26:31;17.70;73.90
41628;DHT22;27321;50.816;6.054;2023-07-30T04:29:32;17.60;74.80
41628;DHT22;27321;50.816;6.054;2023-07-30T04:32:33;17.60;75.10
41628;DHT22;27321;50.816;6.054;2023-07-30T04:35:34;17.60;75.50
41628;DHT22;27321;50.816;6.054;2023-07-30T04:38:35;17.60;75.70
41628;DHT22;27321;50.816;6.054;2023-07-30T04:41:37;17.60;75.70
41628;DHT22;27321;50.816;6.054;2023-07-30T04:44:38;17.70;75.90
41628;DHT22;27321;50.816;6.054;2023-07-30T04:47:45;17.70;75.70
41628;DHT22;27321;50.816;6.054;2023-07-30T04:50:46;17.70;75.50
41628;DHT22;27321;50.816;6.054;2023-07-30T04:53:47;17.70;75.60
41628;DHT22;27321;50.816;6.054;2023-07-30T04:56:48;17.70;75.40
41628;DHT22;27321;50.816;6.054;2023-07-30T04:59:49;17.80;74.40
41628;DHT22;27321;50.816;6.054;2023-07-30T05:02:50;17.80;74.00
41628;DHT22;27321;50.816;6.054;2023-07-30T05:05:51;17.80;74.40
41628;DHT22;27321;50.816;6.054;2023-07-30T05:08:52;17.80;74.40
41628;DHT22;27321;50.816;6.054;2023-07-30T05:11:53;17.80;74.30
41628;DHT22;27321;50.816;6.054;2023-07-30T05:14:54;17.90;74.30
41628;DHT22;27321;50.816;6.054;2023-07-30T05:17:55;17.90;74.10
41628;DHT22;27321;50.816;6.054;2023-07-30T05:20:56;17.90;73.40
41628;DHT22;27321;50.816;6.054;2023-07-30T05:23:56;18.00;73.30
41628;DHT22;27321;50.816;6.054;2023-07-30T05:26:58;17.90;73.40
41628;DHT22;27321;50.816;6.054;2023-07-30T05:29:59;17.80;73.10
41628;DHT22;27321;50.816;6.054;2023-07-30T05:33:00;17.80;73.30
41628;DHT22;27321;50.816;6.054;2023-07-30T05:36:01;17.70;72.90
41628;DHT22;27321;50.816;6.054;2023-07-30T05:39:02;17.70;73.20
41628;DHT22;27321;50.816;6.054;2023-07-30T05:42:03;17.70;73.40
41628;DHT22;27321;50.816;6.054;2023-07-30T05:45:04;17.70;73.00
41628;DHT22;27321;50.816;6.054;2023-07-30T05:48:06;17.60;72.60
41628;DHT22;27321;50.816;6.054;2023-07-30T05:51:07;17.70;72.60
41628;DHT22;27321;50.816;6.054;2023-07-30T05:54:08;17.80;72.60
41628;DHT22;27321;50.816;6.054;2023-07-30T05:57:09;17.80;72.40
41628;DHT22;27321;50.816;6.054;2023-07-30T06:00:10;17.80;72.00
41628;DHT22;27321;50.816;6.054;2023-07-30T06:03:14;17.80;72.40
41628;DHT22;27321;50.816;6.054;2023-07-30T06:06:16;17.80;72.20
41628;DHT22;27321;50.816;6.054;2023-07-30T06:09:17;17.80;71.80
41628;DHT22;27321;50.816;6.054;2023-07-30T06:12:18;17.80;72.10
41628;DHT22;27321;50.816;6.054;2023-07-30T06:15:19;17.80;72.70
41628;DHT22;27321;50.816;6.054;2023-07-30T06:18:20;17.70;72.40
41628;DHT22;27321;50.816;6.054;2023-07-30T06:21:21;17.80;72.90
41628;DHT22;27321;50.816;6.054;2023-07-30T06:24:22;17.80;72.40
41628;DHT22;27321;50.816;6.054;2023-07-30T06:27:23;17.70;72.40
41628;DHT22;27321;50.816;6.054;2023-07-30T06:30:24;17.70;72.90
41628;DHT22;27321;50.816;6.054;2023-07-30T06:33:25;17.70;73.10
41628;DHT22;27321;50.816;6.054;2023-07-30T06:36:26;17.70;73.50
41628;DHT22;27321;50.816;6.054;2023-07-30T06:39:27;17.70;73.50
41628;DHT22;27321;50.816;6.054;2023-07-30T06:42:28;17.80;73.80
41628;DHT22;27321;50.816;6.054;2023-07-30T06:45:29;17.80;73.60
41628;DHT22;27321;50.816;6.054;2023-07-30T06:48:30;17.90;73.10
41628;DHT22;27321;50.816;6.054;2023-07-30T06:51:31;17.90;73.40
41628;DHT22;27321;50.816;6.054;2023-07-30T06:54:32;18.00;73.20
41628;DHT22;27321;50.816;6.054;2023-07-30T06:57:33;18.00;73.50
41628;DHT22;27321;50.816;6.054;2023-07-30T07:00:34;18.00;73.70
41628;DHT22;27321;50.816;6.054;2023-07-30T07:03:35;18.00;73.60
41628;DHT22;27321;50.816;6.054;2023-07-30T07:06:36;18.00;73.50
41628;DHT22;27321;50.816;6.054;2023-07-30T07:09:37;18.00;73.70
41628;DHT22;27321;50.816;6.054;2023-07-30T07:12:39;18.10;73.60
41628;DHT22;27321;50.816;6.054;2023-07-30T07:15:43;18.10;73.50
41628;DHT22;27321;50.816;6.054;2023-07-30T07:18:44;18.10;73.70
41628;DHT22;27321;50.816;6.054;2023-07-30T07:21:45;18.10;74.00
41628;DHT22;27321;50.816;6.054;2023-07-30T07:24:46;18.00;73.50
41628;DHT22;27321;50.816;6.054;2023-07-30T07:27:47;18.00;73.60
41628;DHT22;27321;50.816;6.054;2023-07-30T07:30:48;18.10;73.80
41628;DHT22;27321;50.816;6.054;2023-07-30T07:33:49;18.10;73.90
41628;DHT22;27321;50.816;6.054;2023-07-30T07:36:50;18.10;73.30
41628;DHT22;27321;50.816;6.054;2023-07-30T07:39:51;18.20;73.70
41628;DHT22;27321;50.816;6.054;2023-07-30T07:42:52;18.30;73.10
41628;DHT22;27321;50.816;6.054;2023-07-30T07:45:53;18.40;73.10
41628;DHT22;27321;50.816;6.054;2023-07-30T07:48:54;18.40;72.40
41628;DHT22;27321;50.816;6.054;2023-07-30T07:51:55;18.40;72.40
41628;DHT22;27321;50.816;6.054;2023-07-30T07:54:56;18.30;72.10
41628;DHT22;27321;50.816;6.054;2023-07-30T07:57:57;18.30;71.50
41628;DHT22;27321;50.816;6.054;2023-07-30T08:00:59;18.20;72.50
41628;DHT22;27321;50.816;6.054;2023-07-30T08:04:00;18.20;72.60
41628;DHT22;27321;50.816;6.054;2023-07-30T08:07:01;18.10;72.60
41628;DHT22;27321;50.816;6.054;2023-07-30T08:10:04;18.20;73.00
41628;DHT22;27321;50.816;6.054;2023-07-30T08:13:05;18.30;73.00
41628;DHT22;27321;50.816;6.054;2023-07-30T08:16:06;18.50;72.50
41628;DHT22;27321;50.816;6.054;2023-07-30T08:19:07;18.60;72.70
41628;DHT22;27321;50.816;6.054;2023-07-30T08:22:08;18.60;71.40
41628;DHT22;27321;50.816;6.054;2023-07-30T08:25:09;18.70;71.60
41628;DHT22;27321;50.816;6.054;2023-07-30T08:28:10;18.70;71.80
41628;DHT22;27321;50.816;6.054;2023-07-30T08:31:11;18.80;71.00
41628;DHT22;27321;50.816;6.054;2023-07-30T08:34:13;18.80;70.70
41628;DHT22;27321;50.816;6.054;2023-07-30T08:37:14;18.80;70.20
41628;DHT22;27321;50.816;6.054;2023-07-30T08:40:15;18.80;70.80
41628;DHT22;27321;50.816;6.054;2023-07-30T08:43:19;18.80;70.50
41628;DHT22;27321;50.816;6.054;2023-07-30T08:46:20;18.80;70.80
41628;DHT22;27321;50.816;6.054;2023-07-30T08:49:21;18.80;70.70
41628;DHT22;27321;50.816;6.054;2023-07-30T08:52:23;18.90;70.70
41628;DHT22;27321;50.816;6.054;2023-07-30T08:55:26;19.00;70.20
41628;DHT22;27321;50.816;6.054;2023-07-30T08:58:32;19.10;70.50
41628;DHT22;27321;50.816;6.054;2023-07-30T09:01:37;19.30;69.50
41628;DHT22;27321;50.816;6.054;2023-07-30T09:04:40;19.30;68.70
41628;DHT22;27321;50.816;6.054;2023-07-30T09:07:42;19.30;68.30
41628;DHT22;27321;50.816;6.054;2023-07-30T09:10:43;19.20;67.20
41628;DHT22;27321;50.816;6.054;2023-07-30T09:13:44;19.20;68.10
41628;DHT22;27321;50.816;6.054;2023-07-30T09:16:45;19.20;68.80
41628;DHT22;27321;50.816;6.054;2023-07-30T09:19:47;19.10;68.80
41628;DHT22;27321;50.816;6.054;2023-07-30T09:22:48;19.10;68.40
41628;DHT22;27321;50.816;6.054;2023-07-30T09:25:50;19.00;68.60
41628;DHT22;27321;50.816;6.054;2023-07-30T09:28:51;19.10;67.90
41628;DHT22;27321;50.816;6.054;2023-07-30T09:31:53;19.10;68.60
41628;DHT22;27321;50.816;6.054;2023-07-30T09:34:55;19.20;68.50
41628;DHT22;27321;50.816;6.054;2023-07-30T09:38:06;19.30;67.00
41628;DHT22;27321;50.816;6.054;2023-07-30T09:41:07;19.40;67.50
41628;DHT22;27321;50.816;6.054;2023-07-30T09:44:08;19.50;66.40
41628;DHT22;27321;50.816;6.054;2023-07-30T09:47:10;19.60;65.00
41628;DHT22;27321;50.816;6.054;2023-07-30T09:50:11;19.80;64.80
41628;DHT22;27321;50.816;6.054;2023-07-30T09:53:13;19.90;64.90
41628;DHT22;27321;50.816;6.054;2023-07-30T09:56:15;20.10;65.40
41628;DHT22;27321;50.816;6.054;2023-07-30T09:59:17;20.20;63.40
41628;DHT22;27321;50.816;6.054;2023-07-30T10:02:19;20.30;63.50
41628;DHT22;27321;50.816;6.054;2023-07-30T10:05:23;20.40;61.40
41628;DHT22;27321;50.816;6.054;2023-07-30T10:08:26;20.50;62.50
41628;DHT22;27321;50.816;6.054;2023-07-30T10:11:30;20.60;61.50
41628;DHT22;27321;50.816;6.054;2023-07-30T10:14:31;20.60;61.90
41628;DHT22;27321;50.816;6.054;2023-07-30T10:17:32;20.50;62.30
41628;DHT22;27321;50.816;6.054;2023-07-30T10:20:34;20.50;61.40
41628;DHT22;27321;50.816;6.054;2023-07-30T10:23:35;20.60;61.60
41628;DHT22;27321;50.816;6.054;2023-07-30T10:26:43;20.70;61.40
41628;DHT22;27321;50.816;6.054;2023-07-30T10:29:45;20.80;61.60
41628;DHT22;27321;50.816;6.054;2023-07-30T10:35:57;20.80;59.30
41628;DHT22;27321;50.816;6.054;2023-07-30T10:39:19;20.80;59.30
41628;DHT22;27321;50.816;6.054;2023-07-30T10:42:22;20.80;60.00
41628;DHT22;27321;50.816;6.054;2023-07-30T10:45:25;20.90;61.00
41628;DHT22;27321;50.816;6.054;2023-07-30T10:48:31;21.00;58.10
41628;DHT22;27321;50.816;6.054;2023-07-30T10:51:34;21.00;59.80
41628;DHT22;27321;50.816;6.054;2023-07-30T10:54:36;21.00;58.40
41628;DHT22;27321;50.816;6.054;2023-07-30T10:57:37;21.10;57.60
41628;DHT22;27321;50.816;6.054;2023-07-30T11:00:40;21.10;59.00
41628;DHT22;27321;50.816;6.054;2023-07-30T11:03:43;21.10;59.90
41628;DHT22;27321;50.816;6.054;2023-07-30T11:06:48;21.10;60.60
41628;DHT22;27321;50.816;6.054;2023-07-30T11:10:00;21.20;59.90
41628;DHT22;27321;50.816;6.054;2023-07-30T11:13:02;21.10;59.90
41628;DHT22;27321;50.816;6.054;2023-07-30T11:16:10;21.00;59.60
41628;DHT22;27321;50.816;6.054;2023-07-30T11:19:11;20.90;60.40
41628;DHT22;27321;50.816;6.054;2023-07-30T11:22:14;20.80;60.80
41628;DHT22;27321;50.816;6.054;2023-07-30T11:25:18;20.70;61.20
41628;DHT22;27321;50.816;6.054;2023-07-30T11:28:35;20.70;61.20
41628;DHT22;27321;50.816;6.054;2023-07-30T11:31:37;20.80;61.20
41628;DHT22;27321;50.816;6.054;2023-07-30T11:34:38;21.00;60.30
41628;DHT22;27321;50.816;6.054;2023-07-30T11:37:40;21.00;59.50
41628;DHT22;27321;50.816;6.054;2023-07-30T11:40:43;21.00;59.60
41628;DHT22;27321;50.816;6.054;2023-07-30T11:43:44;21.10;59.70
41628;DHT22;27321;50.816;6.054;2023-07-30T11:46:55;21.20;58.30
41628;DHT22;27321;50.816;6.054;2023-07-30T11:49:57;21.20;58.70
41628;DHT22;27321;50.816;6.054;2023-07-30T11:52:58;21.00;59.10
41628;DHT22;27321;50.816;6.054;2023-07-30T11:55:59;20.90;59.40
41628;DHT22;27321;50.816;6.054;2023-07-30T11:59:02;20.90;60.80
41628;DHT22;27321;50.816;6.054;2023-07-30T12:02:06;20.80;59.90
41628;DHT22;27321;50.816;6.054;2023-07-30T12:05:10;20.90;61.90
41628;DHT22;27321;50.816;6.054;2023-07-30T12:08:16;21.20;61.90
41628;DHT22;27321;50.816;6.054;2023-07-30T12:11:18;21.30;58.60
41628;DHT22;27321;50.816;6.054;2023-07-30T12:14:25;21.20;57.20
41628;DHT22;27321;50.816;6.054;2023-07-30T12:17:30;21.10;57.70
41628;DHT22;27321;50.816;6.054;2023-07-30T12:20:31;21.10;58.40
41628;DHT22;27321;50.816;6.054;2023-07-30T12:23:32;21.10;59.10
41628;DHT22;27321;50.816;6.054;2023-07-30T12:26:34;21.00;59.80
41628;DHT22;27321;50.816;6.054;2023-07-30T12:29:35;21.00;59.60
41628;DHT22;27321;50.816;6.054;2023-07-30T12:32:36;21.10;60.10
41628;DHT22;27321;50.816;6.054;2023-07-30T12:35:37;21.10;60.00
41628;DHT22;27321;50.816;6.054;2023-07-30T12:38:39;21.00;60.10
41628;DHT22;27321;50.816;6.054;2023-07-30T12:41:40;21.00;59.70
41628;DHT22;27321;50.816;6.054;2023-07-30T12:44:41;20.90;60.40
41628;DHT22;27321;50.816;6.054;2023-07-30T12:47:42;21.00;60.70
41628;DHT22;27321;50.816;6.054;2023-07-30T12:50:43;21.10;61.40
41628;DHT22;27321;50.816;6.054;2023-07-30T12:53:45;21.20;59.20
41628;DHT22;27321;50.816;6.054;2023-07-30T12:56:46;21.30;57.70
41628;DHT22;27321;50.816;6.054;2023-07-30T12:59:48;21.30;55.70
41628;DHT22;27321;50.816;6.054;2023-07-30T13:02:49;21.50;57.30
41628;DHT22;27321;50.816;6.054;2023-07-30T13:05:52;21.70;56.40
41628;DHT22;27321;50.816;6.054;2023-07-30T13:08:53;21.80;57.40
41628;DHT22;27321;50.816;6.054;2023-07-30T13:11:54;21.80;58.20
41628;DHT22;27321;50.816;6.054;2023-07-30T13:14:55;21.80;57.60
41628;DHT22;27321;50.816;6.054;2023-07-30T13:17:56;21.80;56.30
41628;DHT22;27321;50.816;6.054;2023-07-30T13:20:57;21.80;56.20
41628;DHT22;27321;50.816;6.054;2023-07-30T13:23:58;21.80;55.20
41628;DHT22;27321;50.816;6.054;2023-07-30T13:26:59;21.80;56.10
41628;DHT22;27321;50.816;6.054;2023-07-30T13:30:00;22.00;57.40
41628;DHT22;27321;50.816;6.054;2023-07-30T13:33:01;22.10;56.00
41628;DHT22;27321;50.816;6.054;2023-07-30T13:36:03;22.10;54.90
41628;DHT22;27321;50.816;6.054;2023-07-30T13:39:06;22.20;55.40
41628;DHT22;27321;50.816;6.054;2023-07-30T13:42:07;22.10;55.30
41628;DHT22;27321;50.816;6.054;2023-07-30T13:45:08;22.10;53.80
41628;DHT22;27321;50.816;6.054;2023-07-30T13:48:09;22.10;53.00
41628;DHT22;27321;50.816;6.054;2023-07-30T13:51:10;22.10;53.40
41628;DHT22;27321;50.816;6.054;2023-07-30T13:54:11;22.40;52.10
41628;DHT22;27321;50.816;6.054;2023-07-30T13:57:24;22.40;53.10
41628;DHT22;27321;50.816;6.054;2023-07-30T14:00:25;22.40;51.70
41628;DHT22;27321;50.816;6.054;2023-07-30T14:03:26;22.40;52.90
41628;DHT22;27321;50.816;6.054;2023-07-30T14:06:27;22.50;52.30
41628;DHT22;27321;50.816;6.054;2023-07-30T14:09:29;22.50;51.80
41628;DHT22;27321;50.816;6.054;2023-07-30T14:12:33;22.40;51.80
41628;DHT22;27321;50.816;6.054;2023-07-30T14:15:34;22.20;53.10
41628;DHT22;27321;50.816;6.054;2023-07-30T14:18:35;22.10;53.60
41628;DHT22;27321;50.816;6.054;2023-07-30T14:21:36;22.00;54.10
41628;DHT22;27321;50.816;6.054;2023-07-30T14:24:37;21.80;54.80
41628;DHT22;27321;50.816;6.054;2023-07-30T14:27:39;21.80;54.70
41628;DHT22;27321;50.816;6.054;2023-07-30T14:30:40;21.70;55.00
41628;DHT22;27321;50.816;6.054;2023-07-30T14:33:44;21.80;56.40
41628;DHT22;27321;50.816;6.054;2023-07-30T14:36:45;22.00;56.00
41628;DHT22;27321;50.816;6.054;2023-07-30T14:39:46;22.10;55.50
41628;DHT22;27321;50.816;6.054;2023-07-30T14:42:47;22.20;55.10
41628;DHT22;27321;50.816;6.054;2023-07-30T14:45:49;22.20;54.80
41628;DHT22;27321;50.816;6.054;2023-07-30T14:48:50;22.10;54.80
41628;DHT22;27321;50.816;6.054;2023-07-30T14:51:51;22.10;55.10
41628;DHT22;27321;50.816;6.054;2023-07-30T14:54:56;21.90;55.00
41628;DHT22;27321;50.816;6.054;2023-07-30T14:58:00;21.90;56.00
41628;DHT22;27321;50.816;6.054;2023-07-30T15:01:02;22.00;56.80
41628;DHT22;27321;50.816;6.054;2023-07-30T15:04:03;22.10;55.10
41628;DHT22;27321;50.816;6.054;2023-07-30T15:07:07;22.10;55.50
41628;DHT22;27321;50.816;6.054;2023-07-30T15:10:09;22.20;53.90
41628;DHT22;27321;50.816;6.054;2023-07-30T15:13:11;22.30;51.00
41628;DHT22;27321;50.816;6.054;2023-07-30T15:16:12;22.20;50.70
41628;DHT22;27321;50.816;6.054;2023-07-30T15:19:16;22.20;51.60
41628;DHT22;27321;50.816;6.054;2023-07-30T15:22:20;22.30;51.50
41628;DHT22;27321;50.816;6.054;2023-07-30T15:25:22;22.30;50.80
41628;DHT22;27321;50.816;6.054;2023-07-30T15:28:23;22.20;50.90
41628;DHT22;27321;50.816;6.054;2023-07-30T15:31:25;22.30;51.10
41628;DHT22;27321;50.816;6.054;2023-07-30T15:34:36;22.20;50.80
41628;DHT22;27321;50.816;6.054;2023-07-30T15:37:40;22.30;51.40
41628;DHT22;27321;50.816;6.054;2023-07-30T15:40:42;22.40;51.30
41628;DHT22;27321;50.816;6.054;2023-07-30T15:43:48;22.40;50.70
41628;DHT22;27321;50.816;6.054;2023-07-30T15:46:49;22.50;50.60
41628;DHT22;27321;50.816;6.054;2023-07-30T15:49:51;22.50;51.10
41628;DHT22;27321;50.816;6.054;2023-07-30T15:52:52;22.50;51.50
41628;DHT22;27321;50.816;6.054;2023-07-30T15:55:54;22.50;51.80
41628;DHT22;27321;50.816;6.054;2023-07-30T15:58:56;22.60;52.00
41628;DHT22;27321;50.816;6.054;2023-07-30T16:01:58;22.70;48.40
41628;DHT22;27321;50.816;6.054;2023-07-30T16:05:02;22.60;47.50
41628;DHT22;27321;50.816;6.054;2023-07-30T16:08:04;22.60;48.60
41628;DHT22;27321;50.816;6.054;2023-07-30T16:11:07;22.60;48.80
41628;DHT22;27321;50.816;6.054;2023-07-30T16:14:11;22.60;48.80
41628;DHT22;27321;50.816;6.054;2023-07-30T16:17:12;22.60;49.20
41628;DHT22;27321;50.816;6.054;2023-07-30T16:20:14;22.60;49.90
41628;DHT22;27321;50.816;6.054;2023-07-30T16:23:15;22.50;49.90
41628;DHT22;27321;50.816;6.054;2023-07-30T16:26:16;22.30;50.00
41628;DHT22;27321;50.816;6.054;2023-07-30T16:29:17;22.40;50.90
41628;DHT22;27321;50.816;6.054;2023-07-30T16:32:18;22.30;50.80
41628;DHT22;27321;50.816;6.054;2023-07-30T16:35:19;22.30;50.90
41628;DHT22;27321;50.816;6.054;2023-07-30T16:38:20;22.30;51.00
41628;DHT22;27321;50.816;6.054;2023-07-30T16:41:21;22.20;51.50
41628;DHT22;27321;50.816;6.054;2023-07-30T16:44:22;22.20;51.30
41628;DHT22;27321;50.816;6.054;2023-07-30T16:47:23;22.10;51.90
41628;DHT22;27321;50.816;6.054;2023-07-30T16:50:24;22.00;52.80
41628;DHT22;27321;50.816;6.054;2023-07-30T16:53:25;21.90;52.40
41628;DHT22;27321;50.816;6.054;2023-07-30T16:56:26;21.80;53.50
41628;DHT22;27321;50.816;6.054;2023-07-30T16:59:27;21.60;55.20
41628;DHT22;27321;50.816;6.054;2023-07-30T17:02:28;21.40;56.70
41628;DHT22;27321;50.816;6.054;2023-07-30T17:05:29;21.30;59.40
41628;DHT22;27321;50.816;6.054;2023-07-30T17:08:31;21.10;61.80
41628;DHT22;27321;50.816;6.054;2023-07-30T17:11:32;20.90;64.10
41628;DHT22;27321;50.816;6.054;2023-07-30T17:14:33;20.60;66.40
41628;DHT22;27321;50.816;6.054;2023-07-30T17:17:34;20.50;67.90
41628;DHT22;27321;50.816;6.054;2023-07-30T17:20:35;20.50;68.80
41628;DHT22;27321;50.816;6.054;2023-07-30T17:23:36;20.50;69.10
41628;DHT22;27321;50.816;6.054;2023-07-30T17:26:37;20.40;69.30
41628;DHT22;27321;50.816;6.054;2023-07-30T17:29:38;20.50;69.30
41628;DHT22;27321;50.816;6.054;2023-07-30T17:32:39;20.50;69.60
41628;DHT22;27321;50.816;6.054;2023-07-30T17:35:40;20.50;69.70
41628;DHT22;27321;50.816;6.054;2023-07-30T17:38:41;20.50;69.50
41628;DHT22;27321;50.816;6.054;2023-07-30T17:41:42;20.50;69.60
41628;DHT22;27321;50.816;6.054;2023-07-30T17:44:48;20.50;69.90
41628;DHT22;27321;50.816;6.054;2023-07-30T17:47:49;20.50;69.70
41628;DHT22;27321;50.816;6.054;2023-07-30T17:50:50;20.50;69.80
41628;DHT22;27321;50.816;6.054;2023-07-30T17:53:51;20.50;70.00
41628;DHT22;27321;50.816;6.054;2023-07-30T17:56:52;20.50;70.00
41628;DHT22;27321;50.816;6.054;2023-07-30T17:59:53;20.40;70.60
41628;DHT22;27321;50.816;6.054;2023-07-30T18:02:54;20.30;71.00
41628;DHT22;27321;50.816;6.054;2023-07-30T18:05:55;20.10;71.30
41628;DHT22;27321;50.816;6.054;2023-07-30T18:08:56;20.10;72.40
41628;DHT22;27321;50.816;6.054;2023-07-30T18:11:57;19.90;72.60
41628;DHT22;27321;50.816;6.054;2023-07-30T18:14:58;19.80;73.00
41628;DHT22;27321;50.816;6.054;2023-07-30T18:17:59;19.70;72.90
41628;DHT22;27321;50.816;6.054;2023-07-30T18:21:04;19.50;73.60
41628;DHT22;27321;50.816;6.054;2023-07-30T18:24:05;19.50;74.20
41628;DHT22;27321;50.816;6.054;2023-07-30T18:27:06;19.40;74.20
41628;DHT22;27321;50.816;6.054;2023-07-30T18:30:07;19.40;74.40
41628;DHT22;27321;50.816;6.054;2023-07-30T18:33:08;19.30;75.10
41628;DHT22;27321;50.816;6.054;2023-07-30T18:36:09;19.40;75.10
41628;DHT22;27321;50.816;6.054;2023-07-30T18:39:10;19.30;75.00
41628;DHT22;27321;50.816;6.054;2023-07-30T18:42:11;19.30;75.10
41628;DHT22;27321;50.816;6.054;2023-07-30T18:45:12;19.40;74.90
41628;DHT22;27321;50.816;6.054;2023-07-30T18:48:13;19.40;75.10
41628;DHT22;27321;50.816;6.054;2023-07-30T18:51:16;19.40;75.10
41628;DHT22;27321;50.816;6.054;2023-07-30T18:54:17;19.40;74.70
41628;DHT22;27321;50.816;6.054;2023-07-30T18:57:18;19.30;74.90
41628;DHT22;27321;50.816;6.054;2023-07-30T19:00:19;19.20;75.30
41628;DHT22;27321;50.816;6.054;2023-07-30T19:03:20;19.20;75.20
41628;DHT22;27321;50.816;6.054;2023-07-30T19:06:22;19.20;75.40
41628;DHT22;27321;50.816;6.054;2023-07-30T19:09:25;19.10;75.00
41628;DHT22;27321;50.816;6.054;2023-07-30T19:12:26;19.10;75.50